Hlavní strana
METAR-TAF:

METAR-TAF

Letiště :

Mezinárodní letiště Dauhá

Dauhá, Katar

zeměpisná šířka: 25-15-40N, zeměpisná délka: 051-33-54E, výška: 11 m

Aktuální stav počasí

Zpráva byla vytvořena před 19 minutami, v 08:00 UTC
Severozápadní vítr 10 kt, proměnlivý mezi západoseverozápadním a severním
Teplota 26°C
Vlhkost vzduchu 70%
Tlak 1015 hPa
Viditelnost 10 km a více
Skoro jasno ve výšce 2000 ft

METAR: OTBD 110800Z 32010KT 290V350 9999 FEW020 26/20 Q1015 NOSIG

Čas: 11:19 (08:19 UTC)

Předpověď počasí

Zpráva byla vytvořena před 3 hodinami a 18 minutami, v 05:01 UTC
Předpověď platná od 11 v 06 UTC do 12 v 12 UTC
Západoseverozápadní vítr 15 kt
Viditelnost: 8000 m
Dočasný
od 11 v 09 UTC do 11 v 18 UTC
Severoseverozápadní vítr 15 kt s nárazy do 25 kt

TAF: OTBD 110501Z 1106/1212 30015KT 8000 NSC TEMPO 1109/1118 33015G25KT

Stav a předpovědi počasí z více než 4 000 letišť (zprávy METAR a TAF).

Červené a žluté tečky na mapě představují dostupné meteorologické stanice.

Když kurzor umístíte na tečku, zobrazí se název stanice.

Pak kliknutím zobrazíte stav a předpověď počasí.

Chcete-li změnit mapu, kliknutím na zelené tlačítko se znaménkem +mapu přiblížíte, kliknutím na zelené tlačítko se znaménkem – mapu oddálíte a kliknutím na zelené šipky přejdete na sousední mapy.


METAR-TAF: